Wabana, Canada
Current Conditions -  °F | °C
As of 12:00 PM on Wednesday 22 Oct 2014 (Local Time) from CYYT Reporting Station
Broken Clouds Broken Clouds  
Wind Chill: 46°   Ceiling: 14000
Heat Index: 48°   Visibility: 15mi
Dew Point: 37°   Wind: 6mph
Humidity: 66%   Direction: 60°ENE
Pressure: 30.45"   Gusts: NA
Location:  47.65°N, 52.93°W
Report Text: CYYT 221400Z 06005KT 15SM FEW012 SCT025 BKN140 09/03 A3045 RMK SF1SC2AC4 SLP316
Loading
Personal Weather Stations






























Interactive Weather Map
Tropical Storm Tracking
New forecast layout! Learn more

10-Day Weather Forecast

Advertisements
Track Severe Weather on mobile